Time;durP1;ratioP1;P1;durP2;ratioP2;P2;SDS_P1;SDS_P2;PMS_P1;PMS_P2;Temp;Humidity;BMP_temperature;BMP_pressure;BME280_temperature;BME280_humidity;BME280_pressure;Samples;Min_cycle;Max_cycle;Signal;HPM_P1;HPM_P2
2021/12/21 00:01:38;;;;;;;11.45;5.47;;;2.40;83.90;;;;;;5034146;28;20360;-77
2021/12/21 00:04:06;;;;;;;9.25;4.00;;;2.40;83.70;;;;;;5034298;28;20435;-77
2021/12/21 00:06:33;;;;;;;10.07;4.53;;;2.40;83.70;;;;;;5008558;28;20616;-78
2021/12/21 00:09:01;;;;;;;11.65;5.57;;;2.40;83.70;;;;;;5014255;28;20038;-76
2021/12/21 00:11:28;;;;;;;12.15;5.25;;;2.40;84.00;;;;;;4997499;28;20018;-77
2021/12/21 00:14:10;;;;;;;10.88;4.32;;;2.30;84.00;;;;;;4996565;28;20109;-78
2021/12/21 00:17:00;;;;;;;10.57;4.82;;;2.30;84.30;;;;;;5014131;28;20030;-78
2021/12/21 00:22:52;;;;;;;11.90;4.60;;;2.30;84.40;;;;;;5014332;28;20041;-78
2021/12/21 00:25:04;;;;;;;12.93;5.18;;;2.30;84.30;;;;;;5013544;28;20038;-78
2021/12/21 00:27:30;;;;;;;12.55;4.32;;;2.30;84.30;;;;;;5015817;28;20105;-77
2021/12/21 00:29:58;;;;;;;10.40;4.80;;;2.30;84.30;;;;;;4997985;28;20057;-78
2021/12/21 00:32:25;;;;;;;11.35;5.00;;;2.30;84.40;;;;;;4996803;28;20030;-77
2021/12/21 00:34:53;;;;;;;10.40;4.50;;;2.30;85.20;;;;;;4996420;28;20029;-78
2021/12/21 00:37:18;;;;;;;11.60;4.90;;;2.30;84.40;;;;;;5014124;28;20079;-78
2021/12/21 00:39:45;;;;;;;12.05;5.18;;;2.30;84.40;;;;;;4996257;28;20042;-78
2021/12/21 00:42:12;;;;;;;11.98;5.60;;;2.30;84.40;;;;;;5012804;28;20479;-79
2021/12/21 00:44:37;;;;;;;13.82;6.00;;;2.30;84.40;;;;;;5013910;28;20049;-79
2021/12/21 00:47:04;;;;;;;10.52;5.20;;;2.30;84.40;;;;;;5013684;28;20104;-77
2021/12/21 00:49:32;;;;;;;11.88;5.53;;;2.30;85.00;;;;;;5014091;28;20562;-78
2021/12/21 00:52:00;;;;;;;11.40;6.63;;;2.20;85.30;;;;;;4980226;28;20037;-78
2021/12/21 00:54:27;;;;;;;12.40;6.15;;;2.20;85.70;;;;;;4996229;28;20041;-77
2021/12/21 00:56:55;;;;;;;14.68;6.63;;;2.10;85.60;;;;;;5013689;28;20456;-79
2021/12/21 00:59:23;;;;;;;14.63;7.20;;;2.10;85.70;;;;;;5013915;28;20382;-78
2021/12/21 01:01:50;;;;;;;16.20;7.05;;;2.10;85.90;;;;;;4995959;28;20030;-78
2021/12/21 01:04:23;;;;;;;16.30;6.95;;;2.10;85.90;;;;;;5013891;28;20456;-79
2021/12/21 01:07:09;;;;;;;17.35;6.95;;;2.00;85.90;;;;;;4996991;28;20038;-79
2021/12/21 01:12:25;;;;;;;13.48;6.53;;;1.90;86.40;;;;;;5017562;28;20038;-78
2021/12/21 01:17:28;;;;;;;11.75;6.10;;;1.90;86.70;;;;;;5017941;28;20041;-78
2021/12/21 01:20:13;;;;;;;17.38;6.35;;;1.90;86.60;;;;;;5014656;28;20042;-79
2021/12/21 01:25:51;;;;;;;14.93;7.35;;;1.90;86.70;;;;;;4986892;28;20375;-78
2021/12/21 01:31:02;;;;;;;12.80;6.50;;;1.80;87.00;;;;;;5017557;28;20383;-77
2021/12/21 01:36:04;;;;;;;12.68;6.10;;;1.80;87.10;;;;;;5017636;28;20478;-79
2021/12/21 01:38:46;;;;;;;16.10;6.40;;;1.80;87.20;;;;;;4999529;28;20058;-79
2021/12/21 01:41:26;;;;;;;13.30;6.75;;;1.80;87.40;;;;;;4985117;28;20033;-78
2021/12/21 01:49:41;;;;;;;15.35;6.90;;;1.70;87.30;;;;;;5017525;28;20040;-76
2021/12/21 01:52:17;;;;;;;14.80;6.50;;;1.70;87.20;;;;;;5017558;28;20026;-79
2021/12/21 01:54:44;;;;;;;14.27;6.70;;;1.70;87.40;;;;;;4999497;28;20490;-78
2021/12/21 01:57:11;;;;;;;13.43;6.93;;;1.70;87.40;;;;;;5016906;28;20030;-77
2021/12/21 01:59:38;;;;;;;11.25;5.63;;;1.70;87.40;;;;;;4998976;28;20108;-80
2021/12/21 02:02:08;;;;;;;12.57;5.60;;;1.70;87.50;;;;;;4999160;28;20029;-78
2021/12/21 02:04:34;;;;;;;15.00;6.00;;;1.70;87.40;;;;;;5016978;28;20080;-79
2021/12/21 02:07:02;;;;;;;12.65;5.72;;;1.70;87.30;;;;;;5010504;28;20045;-79
2021/12/21 02:09:37;;;;;;;14.77;6.10;;;1.70;87.20;;;;;;5019522;28;20104;-79
2021/12/21 02:12:11;;;;;;;16.45;6.43;;;1.70;87.10;;;;;;5036642;28;20570;-79
2021/12/21 02:14:39;;;;;;;14.02;5.90;;;1.70;87.00;;;;;;5033356;28;20033;-79
2021/12/21 02:23:13;;;;;;;11.32;4.90;;;1.70;86.80;;;;;;4982709;28;20039;-80
2021/12/21 02:30:55;;;;;;;11.00;5.70;;;1.70;86.60;;;;;;5019089;28;20038;-80
2021/12/21 02:33:22;;;;;;;10.18;5.13;;;1.70;86.60;;;;;;5001980;28;20106;-79
2021/12/21 02:35:49;;;;;;;12.70;5.82;;;1.70;86.60;;;;;;5018244;28;20108;-80
2021/12/21 02:38:18;;;;;;;12.80;6.03;;;1.70;86.60;;;;;;5036167;28;20033;-78
2021/12/21 02:40:45;;;;;;;13.95;5.03;;;1.70;86.50;;;;;;5002598;28;20025;-79
2021/12/21 02:43:13;;;;;;;11.55;5.28;;;1.70;86.50;;;;;;5036021;28;20045;-79
2021/12/21 02:46:01;;;;;;;15.57;5.45;;;1.70;86.50;;;;;;5018842;28;20097;-79
2021/12/21 02:48:28;;;;;;;19.02;5.60;;;1.70;86.30;;;;;;5035943;28;20053;-79
2021/12/21 02:50:55;;;;;;;16.15;6.13;;;1.70;86.20;;;;;;5035676;28;20033;-79
2021/12/21 02:53:22;;;;;;;13.07;5.25;;;1.70;86.30;;;;;;5035867;28;20036;-79
2021/12/21 02:55:50;;;;;;;11.85;5.45;;;1.70;86.30;;;;;;5035952;28;20064;-80
2021/12/21 02:58:19;;;;;;;11.57;4.75;;;1.70;86.20;;;;;;5035797;28;20064;-79
2021/12/21 03:00:47;;;;;;;9.07;4.75;;;1.70;86.10;;;;;;5035808;28;20032;-78
2021/12/21 03:03:15;;;;;;;11.35;5.15;;;1.70;86.00;;;;;;5018610;28;20033;-78
2021/12/21 03:05:47;;;;;;;12.52;5.28;;;1.70;86.00;;;;;;5017544;28;20383;-79
2021/12/21 03:08:20;;;;;;;12.40;5.00;;;1.70;86.00;;;;;;5035785;28;20025;-80
2021/12/21 03:16:19;;;;;;;9.32;4.35;;;1.70;86.00;;;;;;5020457;28;20095;-79
2021/12/21 03:18:45;;;;;;;11.38;4.50;;;1.60;86.00;;;;;;5017470;28;20263;-78
2021/12/21 03:21:26;;;;;;;8.32;4.13;;;1.70;86.20;;;;;;5017364;28;20022;-80
2021/12/21 03:23:53;;;;;;;8.30;4.20;;;1.70;86.00;;;;;;5035619;28;20022;-80
2021/12/21 03:26:19;;;;;;;8.30;4.53;;;1.70;85.90;;;;;;5001046;28;20026;-80
2021/12/21 03:28:45;;;;;;;8.07;4.85;;;1.70;85.80;;;;;;5034751;28;20104;-79
2021/12/21 03:31:13;;;;;;;11.07;4.40;;;1.70;85.90;;;;;;5034784;28;20104;-78
2021/12/21 03:33:42;;;;;;;8.70;4.43;;;1.70;85.90;;;;;;5000803;28;20026;-80
2021/12/21 03:36:10;;;;;;;9.77;4.35;;;1.70;85.60;;;;;;5035107;28;20017;-79
2021/12/21 03:38:37;;;;;;;8.65;4.30;;;1.70;85.30;;;;;;5017323;28;20457;-79
2021/12/21 03:41:08;;;;;;;8.30;4.32;;;1.70;85.50;;;;;;5017831;28;20032;-80
2021/12/21 03:43:35;;;;;;;9.73;4.83;;;1.70;85.70;;;;;;5018238;28;20037;-78
2021/12/21 03:46:15;;;;;;;7.10;4.13;;;1.70;85.80;;;;;;5017084;28;20749;-79
2021/12/21 03:48:47;;;;;;;12.32;4.03;;;1.70;85.50;;;;;;5035018;28;20032;-79
2021/12/21 03:51:15;;;;;;;9.02;4.82;;;1.70;85.20;;;;;;5016930;28;20033;-79
2021/12/21 03:53:50;;;;;;;8.07;3.97;;;1.70;85.10;;;;;;5000466;28;20053;-78
2021/12/21 03:58:55;;;;;;;9.02;4.60;;;1.70;85.20;;;;;;5034120;28;20037;-80
2021/12/21 04:01:23;;;;;;;9.82;4.80;;;1.80;85.30;;;;;;5016576;28;20560;-80
2021/12/21 04:03:51;;;;;;;10.20;5.20;;;1.80;85.10;;;;;;5016518;28;20482;-81
2021/12/21 04:06:18;;;;;;;12.80;6.40;;;1.80;84.90;;;;;;5016370;28;20041;-80
2021/12/21 04:08:46;;;;;;;8.77;5.13;;;1.80;85.00;;;;;;5034179;28;20021;-80
2021/12/21 04:11:14;;;;;;;11.30;5.57;;;1.80;84.80;;;;;;5034150;28;20033;-79
2021/12/21 04:13:42;;;;;;;12.88;5.30;;;1.80;84.60;;;;;;5034172;28;20017;-78
2021/12/21 04:16:08;;;;;;;14.07;5.15;;;1.70;84.50;;;;;;5034073;28;20029;-80
2021/12/21 04:18:38;;;;;;;11.48;5.45;;;1.80;84.80;;;;;;5034104;28;20028;-79
2021/12/21 04:21:09;;;;;;;9.23;4.75;;;1.80;84.70;;;;;;5034324;28;20033;-78
2021/12/21 04:23:43;;;;;;;9.07;5.20;;;1.70;84.70;;;;;;5017027;28;20104;-80
2021/12/21 04:26:15;;;;;;;7.72;4.57;;;1.80;84.80;;;;;;5034350;28;20029;-80
2021/12/21 04:28:41;;;;;;;9.75;4.43;;;1.80;84.60;;;;;;5016261;28;20014;-79
2021/12/21 04:31:10;;;;;;;10.05;4.32;;;1.80;84.60;;;;;;5016317;28;20031;-80
2021/12/21 04:33:37;;;;;;;15.23;4.63;;;1.80;85.30;;;;;;5000152;28;20033;-80
2021/12/21 04:36:04;;;;;;;12.18;4.38;;;1.80;84.50;;;;;;5033956;28;20029;-80
2021/12/21 04:38:35;;;;;;;8.95;4.25;;;1.80;84.50;;;;;;5016206;28;20026;-80
2021/12/21 04:41:09;;;;;;;7.72;4.00;;;1.80;84.60;;;;;;5033926;28;20075;-79
2021/12/21 04:43:36;;;;;;;9.68;4.47;;;1.90;84.80;;;;;;5017441;28;20024;-79
2021/12/21 04:46:03;;;;;;;10.43;4.53;;;1.80;84.80;;;;;;5016300;28;20034;-81
2021/12/21 04:48:31;;;;;;;8.45;4.40;;;1.90;84.60;;;;;;5033843;28;20078;-81
2021/12/21 04:51:00;;;;;;;9.30;4.43;;;1.90;84.60;;;;;;5016167;28;20021;-80
2021/12/21 04:53:27;;;;;;;11.02;4.85;;;1.90;84.70;;;;;;4999744;28;20099;-80
2021/12/21 04:55:53;;;;;;;7.07;4.28;;;1.90;84.40;;;;;;5016391;28;20041;-79
2021/12/21 04:58:20;;;;;;;8.57;4.50;;;1.90;84.70;;;;;;5001623;28;20083;-80
2021/12/21 05:00:49;;;;;;;8.68;4.25;;;1.90;84.50;;;;;;5036120;28;20175;-81
2021/12/21 05:03:17;;;;;;;10.00;4.85;;;2.00;84.50;;;;;;5000437;28;20090;-81
2021/12/21 05:05:45;;;;;;;12.82;4.70;;;1.90;84.20;;;;;;5033615;28;20017;-79
2021/12/21 05:08:19;;;;;;;11.30;4.65;;;2.00;84.20;;;;;;5015969;28;20037;-81
2021/12/21 05:10:50;;;;;;;9.75;4.00;;;2.00;84.10;;;;;;5033278;28;20494;-80
2021/12/21 05:13:35;;;;;;;12.47;4.33;;;2.00;83.90;;;;;;4999739;28;20504;-81
2021/12/21 05:16:09;;;;;;;10.38;4.03;;;2.00;83.60;;;;;;5015385;28;20022;-81
2021/12/21 05:18:37;;;;;;;10.82;4.15;;;2.00;83.60;;;;;;5015524;28;20029;-80
2021/12/21 05:21:04;;;;;;;18.27;4.30;;;2.00;83.60;;;;;;5033219;28;20459;-81
2021/12/21 05:23:31;;;;;;;12.38;4.95;;;2.10;83.50;;;;;;4999249;28;20032;-81
2021/12/21 05:25:59;;;;;;;14.35;5.60;;;2.10;83.30;;;;;;5015493;28;20429;-81
2021/12/21 05:28:26;;;;;;;13.00;5.60;;;2.10;83.10;;;;;;5033357;28;20083;-80
2021/12/21 05:30:53;;;;;;;12.65;5.78;;;2.10;83.10;;;;;;5033178;28;20025;-81
2021/12/21 05:33:20;;;;;;;15.02;5.50;;;2.10;83.00;;;;;;5015324;28;20025;-81
2021/12/21 05:35:48;;;;;;;9.68;4.72;;;2.20;83.50;;;;;;5015453;28;20091;-81
2021/12/21 05:38:23;;;;;;;10.30;4.75;;;2.20;83.40;;;;;;5033303;28;20018;-81
2021/12/21 05:40:50;;;;;;;12.10;4.95;;;2.20;83.70;;;;;;5033626;28;20394;-79
2021/12/21 05:43:21;;;;;;;11.70;5.63;;;2.20;83.40;;;;;;5015671;28;20025;-79
2021/12/21 05:45:49;;;;;;;12.65;6.05;;;2.20;83.60;;;;;;4993881;28;20090;-80
2021/12/21 05:48:15;;;;;;;9.25;5.22;;;2.20;83.60;;;;;;4976587;28;20484;-80
2021/12/21 05:50:41;;;;;;;11.90;5.10;;;2.20;83.80;;;;;;4994400;28;20037;-78
2021/12/21 05:53:09;;;;;;;10.07;4.88;;;2.30;83.90;;;;;;4995064;28;20015;-81
2021/12/21 05:55:36;;;;;;;14.50;6.13;;;2.30;83.90;;;;;;4997289;28;20034;-80
2021/12/21 05:58:03;;;;;;;12.88;6.78;;;2.30;83.90;;;;;;4996041;28;20105;-81
2021/12/21 06:00:32;;;;;;;17.35;7.85;;;2.30;83.80;;;;;;4996924;28;20427;-76
2021/12/21 06:02:58;;;;;;;12.80;5.90;;;2.30;83.80;;;;;;4996955;28;20022;-75
2021/12/21 06:05:24;;;;;;;9.68;5.13;;;2.30;83.90;;;;;;4995725;28;20034;-75
2021/12/21 06:07:52;;;;;;;12.52;5.28;;;2.20;83.80;;;;;;4995431;28;20077;-75
2021/12/21 06:10:35;;;;;;;14.98;6.22;;;2.20;84.00;;;;;;4996903;28;20088;-75
2021/12/21 06:13:29;;;;;;;;;;;2.20;84.50;;;;;;4979506;28;20022;-74
2021/12/21 06:26:53;;;;;;;15.15;6.05;;;2.10;85.50;;;;;;5035198;28;20152;-74
2021/12/21 06:29:21;;;;;;;14.38;5.95;;;2.20;85.90;;;;;;5035740;28;20033;-75
2021/12/21 06:31:48;;;;;;;20.90;5.95;;;2.20;85.70;;;;;;5017727;28;20018;-75
2021/12/21 06:34:14;;;;;;;11.55;5.50;;;2.20;86.10;;;;;;5035474;28;20514;-74
2021/12/21 06:36:54;;;;;;;19.23;6.38;;;2.20;86.20;;;;;;5017516;28;20017;-74
2021/12/21 06:39:21;;;;;;;10.88;5.22;;;2.30;85.70;;;;;;4998080;28;20033;-75
2021/12/21 06:41:48;;;;;;;11.25;5.65;;;2.30;85.80;;;;;;5015961;28;20380;-74
2021/12/21 06:44:17;;;;;;;11.45;5.57;;;2.40;85.60;;;;;;4995088;28;20018;-75
2021/12/21 06:51:58;;;;;;;11.45;4.50;;;2.60;85.20;;;;;;5015267;28;20179;-75
2021/12/21 06:54:24;;;;;;;12.10;5.20;;;2.60;84.70;;;;;;5015037;28;20370;-74
2021/12/21 06:56:51;;;;;;;20.33;5.25;;;2.70;84.60;;;;;;5015055;28;20538;-73
2021/12/21 06:59:18;;;;;;;20.75;5.70;;;2.70;84.70;;;;;;4997571;28;20076;-73
2021/12/21 07:01:44;;;;;;;10.85;5.20;;;2.80;85.30;;;;;;4997932;28;20033;-75
2021/12/21 07:04:11;;;;;;;13.27;5.25;;;2.80;85.50;;;;;;5015093;28;20018;-75
2021/12/21 07:06:58;;;;;;;34.72;9.73;;;2.80;85.60;;;;;;5014433;28;20041;-77
2021/12/21 07:09:43;;;;;;;22.38;6.53;;;2.90;86.30;;;;;;5015120;28;20475;-75
2021/12/21 07:20:17;;;;;;;16.40;6.07;;;2.90;85.50;;;;;;5014875;28;20038;-75
2021/12/21 07:22:44;;;;;;;19.50;4.47;;;2.90;84.50;;;;;;4997177;28;20390;-76
2021/12/21 07:25:12;;;;;;;30.95;6.35;;;2.90;83.80;;;;;;5001672;28;20533;-75
2021/12/21 07:27:39;;;;;;;20.05;4.72;;;2.80;83.40;;;;;;5015051;28;20050;-79
2021/12/21 07:30:07;;;;;;;11.07;3.28;;;2.80;83.60;;;;;;4982678;28;20490;-78
2021/12/21 07:32:35;;;;;;;16.10;3.42;;;2.80;83.20;;;;;;5015865;28;20476;-77
2021/12/21 07:35:02;;;;;;;13.90;4.50;;;2.90;83.00;;;;;;4996545;28;20033;-78
2021/12/21 07:37:31;;;;;;;17.65;4.20;;;2.80;82.70;;;;;;5014771;28;20034;-76
2021/12/21 07:39:57;;;;;;;14.43;3.15;;;2.80;82.90;;;;;;5013233;28;20029;-76
2021/12/21 07:42:25;;;;;;;10.88;4.78;;;2.80;82.70;;;;;;5014368;28;20025;-76
2021/12/21 07:44:52;;;;;;;16.08;3.72;;;2.80;82.60;;;;;;5012943;28;20030;-76
2021/12/21 07:47:32;;;;;;;11.90;3.22;;;2.80;82.10;;;;;;5014592;28;20022;-76
2021/12/21 07:50:01;;;;;;;6.72;3.38;;;2.80;81.70;;;;;;5013193;28;20026;-79
2021/12/21 07:52:29;;;;;;;14.30;3.15;;;2.70;81.30;;;;;;5015288;28;20040;-80
2021/12/21 07:54:57;;;;;;;9.02;3.42;;;2.70;81.00;;;;;;5002344;28;20018;-79
2021/12/21 07:57:25;;;;;;;14.40;3.95;;;2.60;81.60;;;;;;5000761;28;20065;-80
2021/12/21 07:59:52;;;;;;;13.45;3.20;;;2.50;82.00;;;;;;5022402;28;20022;-87
2021/12/21 08:02:22;;;;;;;6.00;2.95;;;2.50;82.50;;;;;;4985308;28;20053;-79
2021/12/21 08:04:48;;;;;;;6.25;3.05;;;2.40;82.70;;;;;;5014724;28;20498;-80
2021/12/21 08:07:21;;;;;;;9.25;3.47;;;2.40;82.70;;;;;;5014856;28;20042;-78
2021/12/21 08:09:54;;;;;;;7.28;3.25;;;2.40;82.50;;;;;;5012006;28;20096;-78
2021/12/21 08:12:21;;;;;;;7.00;2.90;;;2.40;82.90;;;;;;4992540;28;20112;-81
2021/12/21 08:15:08;;;;;;;5.55;3.30;;;2.40;82.90;;;;;;4992089;28;20110;-78
2021/12/21 08:17:36;;;;;;;4.95;2.47;;;2.40;83.50;;;;;;4996073;28;20030;-79
2021/12/21 08:20:03;;;;;;;8.40;2.85;;;2.40;82.40;;;;;;5010072;28;20034;-79
2021/12/21 08:22:31;;;;;;;6.93;3.30;;;2.40;82.30;;;;;;5008730;28;20030;-81
2021/12/21 08:24:58;;;;;;;14.25;4.10;;;2.40;82.40;;;;;;5021520;28;20025;-83
2021/12/21 08:27:33;;;;;;;13.73;4.63;;;2.40;82.50;;;;;;4997090;28;20091;-86
2021/12/21 08:30:00;;;;;;;9.73;3.85;;;2.40;82.80;;;;;;5014530;28;20030;-79
2021/12/21 08:32:28;;;;;;;12.60;4.40;;;2.50;82.80;;;;;;5017984;28;20026;-81
2021/12/21 08:34:55;;;;;;;11.25;3.80;;;2.50;82.80;;;;;;5013683;28;20025;-79
2021/12/21 08:37:21;;;;;;;7.50;4.03;;;2.50;82.90;;;;;;4995979;28;20396;-81
2021/12/21 08:39:49;;;;;;;8.95;4.30;;;2.60;82.70;;;;;;5014149;28;20022;-80
2021/12/21 08:42:38;;;;;;;11.85;4.70;;;2.60;82.70;;;;;;5006378;28;20013;-79
2021/12/21 08:45:08;;;;;;;9.98;4.45;;;2.70;82.90;;;;;;5020567;28;20104;-78
2021/12/21 08:47:40;;;;;;;16.38;6.32;;;2.70;82.80;;;;;;5034806;28;20123;-78
2021/12/21 08:50:11;;;;;;;8.25;4.35;;;2.80;83.00;;;;;;5011624;28;20128;-77
2021/12/21 08:52:38;;;;;;;13.15;4.90;;;2.80;82.90;;;;;;4996990;28;20491;-80
2021/12/21 08:55:08;;;;;;;9.32;4.70;;;2.90;82.90;;;;;;4997695;28;20033;-87
2021/12/21 08:57:36;;;;;;;12.63;3.78;;;2.90;82.90;;;;;;4997551;28;20436;-83
2021/12/21 09:00:06;;;;;;;14.02;3.58;;;3.00;82.10;;;;;;5012589;28;20029;-81
2021/12/21 09:02:36;;;;;;;10.23;3.70;;;3.00;81.70;;;;;;5029650;28;20117;-80
2021/12/21 09:05:18;;;;;;;5.97;2.78;;;3.00;81.30;;;;;;5001055;28;20018;-78
2021/12/21 09:07:45;;;;;;;6.28;3.30;;;2.90;80.90;;;;;;5016033;28;20399;-77
2021/12/21 09:10:13;;;;;;;13.43;3.47;;;2.90;80.70;;;;;;4981139;28;20037;-78
2021/12/21 09:12:39;;;;;;;13.98;3.85;;;2.80;80.40;;;;;;4999725;28;20120;-80
2021/12/21 09:15:16;;;;;;;7.70;3.85;;;2.80;81.30;;;;;;4999747;28;20123;-79
2021/12/21 09:17:50;;;;;;;17.75;8.52;;;2.90;80.90;;;;;;5007196;28;20034;-78
2021/12/21 09:20:18;;;;;;;11.70;6.60;;;3.00;81.00;;;;;;5030773;28;20056;-77
2021/12/21 09:22:45;;;;;;;8.48;4.45;;;3.00;80.20;;;;;;4999150;28;20031;-78
2021/12/21 09:25:12;;;;;;;4.70;2.83;;;3.10;80.40;;;;;;5015068;28;20455;-79
2021/12/21 09:27:40;;;;;;;7.43;3.28;;;3.20;79.70;;;;;;5016984;28;20025;-77
2021/12/21 09:30:10;;;;;;;7.22;3.42;;;3.30;79.10;;;;;;5019157;28;20613;-77
2021/12/21 09:32:37;;;;;;;5.95;3.00;;;3.30;78.40;;;;;;5037386;28;20032;-81
2021/12/21 09:35:05;;;;;;;5.78;2.85;;;3.30;78.10;;;;;;5019900;28;20504;-87
2021/12/21 09:37:32;;;;;;;7.47;3.05;;;3.30;77.70;;;;;;5019221;28;20021;-77
2021/12/21 09:39:59;;;;;;;6.82;2.72;;;3.30;77.70;;;;;;5019324;28;20087;-79
2021/12/21 09:42:37;;;;;;;5.75;3.00;;;3.30;77.70;;;;;;5019317;28;20048;-78
2021/12/21 09:45:05;;;;;;;6.80;3.40;;;3.30;77.20;;;;;;5037978;28;20010;-79
2021/12/21 09:47:33;;;;;;;7.25;4.05;;;3.40;77.40;;;;;;5036793;28;20395;-85
2021/12/21 09:49:59;;;;;;;12.70;5.15;;;3.40;77.70;;;;;;5019110;28;20029;-85
2021/12/21 09:52:32;;;;;;;11.57;4.75;;;3.50;78.00;;;;;;5036965;28;20083;-81
2021/12/21 09:55:04;;;;;;;8.57;4.88;;;3.50;77.30;;;;;;5019010;28;20064;-79
2021/12/21 09:57:30;;;;;;;9.02;5.22;;;3.60;76.80;;;;;;5002171;28;20025;-81
2021/12/21 09:59:56;;;;;;;8.00;4.20;;;3.60;76.30;;;;;;5017834;28;20025;-77
2021/12/21 10:02:34;;;;;;;9.50;4.63;;;3.60;76.30;;;;;;5036006;28;20021;-80
2021/12/21 10:05:17;;;;;;;13.05;4.95;;;3.70;77.10;;;;;;5019078;28;20105;-79
2021/12/21 10:07:56;;;;;;;5.90;4.18;;;3.70;77.20;;;;;;5035563;28;20041;-82
2021/12/21 10:10:24;;;;;;;9.80;5.55;;;3.70;76.60;;;;;;5018661;28;20040;-82
2021/12/21 10:12:54;;;;;;;11.98;6.53;;;3.70;76.50;;;;;;5034295;28;20040;-79
2021/12/21 10:15:23;;;;;;;10.35;6.22;;;3.80;76.00;;;;;;4999340;28;20035;-79
2021/12/21 10:17:59;;;;;;;14.27;5.75;;;3.90;75.60;;;;;;4998875;28;20516;-78
2021/12/21 10:20:39;;;;;;;10.02;6.00;;;3.90;76.00;;;;;;5016821;28;20611;-74
2021/12/21 10:23:36;;;;;;;12.68;6.10;;;3.80;74.70;;;;;;5017921;28;20029;-78
2021/12/21 10:26:17;;;;;;;10.57;4.00;;;3.80;74.30;;;;;;5014545;28;20037;-75
2021/12/21 10:29:06;;;;;;;8.27;3.20;;;3.90;74.80;;;;;;5016473;28;20033;-77
2021/12/21 10:31:41;;;;;;;6.75;3.53;;;3.90;73.80;;;;;;4981717;28;20096;-78
2021/12/21 10:34:16;;;;;;;7.80;2.60;;;3.90;73.50;;;;;;4998562;28;20030;-77
2021/12/21 10:36:45;;;;;;;8.23;3.65;;;3.90;72.10;;;;;;5014319;28;20014;-79
2021/12/21 10:39:21;;;;;;;6.53;3.38;;;3.90;72.40;;;;;;4998005;28;20034;-77
2021/12/21 10:41:48;;;;;;;7.22;3.53;;;4.00;72.30;;;;;;5000376;28;20060;-82
2021/12/21 10:44:29;;;;;;;10.55;5.25;;;4.00;72.30;;;;;;5017696;28;20029;-84
2021/12/21 10:46:57;;;;;;;8.10;5.10;;;4.10;72.20;;;;;;5035947;28;20099;-76
2021/12/21 10:49:28;;;;;;;12.55;5.13;;;4.00;73.00;;;;;;5033397;28;20045;-79
2021/12/21 10:52:05;;;;;;;9.10;4.90;;;4.00;73.00;;;;;;5035954;28;20049;-76
2021/12/21 10:54:38;;;;;;;12.25;5.65;;;4.00;73.50;;;;;;5017995;28;20140;-77
2021/12/21 10:57:11;;;;;;;10.95;5.03;;;3.90;73.80;;;;;;5035351;28;20466;-80
2021/12/21 10:59:40;;;;;;;8.48;5.35;;;3.90;73.30;;;;;;5035310;28;20028;-87
2021/12/21 11:02:19;;;;;;;17.33;5.28;;;4.00;73.30;;;;;;5018628;28;20037;-86
2021/12/21 11:04:48;;;;;;;11.45;4.75;;;4.00;73.10;;;;;;5036300;28;20058;-82
2021/12/21 11:07:32;;;;;;;7.72;4.93;;;4.00;73.20;;;;;;5035566;28;20037;-75
2021/12/21 11:10:15;;;;;;;10.85;5.85;;;4.00;73.90;;;;;;4999160;28;20060;-76
2021/12/21 11:13:09;;;;;;;10.02;4.47;;;3.90;74.40;;;;;;4997620;28;20034;-76
2021/12/21 11:15:53;;;;;;;7.10;4.32;;;3.90;74.20;;;;;;5022389;28;20399;-78
2021/12/21 11:18:25;;;;;;;13.95;4.90;;;4.00;73.90;;;;;;4978971;28;20049;-78
2021/12/21 11:20:55;;;;;;;8.63;4.03;;;4.00;73.60;;;;;;5017299;28;20026;-76
2021/12/21 11:23:23;;;;;;;13.27;4.47;;;4.00;72.60;;;;;;4997489;28;20046;-78
2021/12/21 11:25:53;;;;;;;7.80;3.83;;;4.00;71.50;;;;;;4997872;28;20479;-76
2021/12/21 11:28:27;;;;;;;7.68;4.45;;;4.10;71.10;;;;;;4981431;28;20109;-77
2021/12/21 11:31:07;;;;;;;6.85;3.50;;;4.10;71.40;;;;;;5014509;28;20022;-78
2021/12/21 11:33:47;;;;;;;14.30;4.60;;;4.10;71.40;;;;;;5016031;28;20026;-72
2021/12/21 11:39:07;;;;;;;7.18;3.75;;;4.10;72.50;;;;;;5000643;28;20049;-76
2021/12/21 11:41:35;;;;;;;8.52;5.18;;;4.10;72.90;;;;;;5014487;28;20037;-79
2021/12/21 11:44:27;;;;;;;9.07;4.00;;;4.00;72.90;;;;;;4997129;28;20026;-79
2021/12/21 11:46:54;;;;;;;7.63;3.45;;;4.00;72.00;;;;;;4996570;28;20026;-78
2021/12/21 11:49:50;;;;;;;12.55;3.50;;;3.90;72.80;;;;;;4998635;28;20467;-77
2021/12/21 11:52:41;;;;;;;10.60;3.60;;;3.90;72.90;;;;;;5011413;28;20038;-80
2021/12/21 11:55:09;;;;;;;6.90;2.97;;;3.80;72.70;;;;;;5019826;28;20100;-74
2021/12/21 11:57:40;;;;;;;6.45;2.65;;;3.70;72.60;;;;;;5034836;28;20064;-75
2021/12/21 12:00:14;;;;;;;6.25;3.47;;;3.60;72.30;;;;;;5033501;28;20022;-84
2021/12/21 12:02:49;;;;;;;3.63;2.15;;;3.40;72.40;;;;;;5015469;28;20080;-75
2021/12/21 12:05:30;;;;;;;5.78;1.92;;;3.40;72.30;;;;;;5023730;28;20106;-71
2021/12/21 12:08:12;;;;;;;4.72;2.40;;;3.30;73.00;;;;;;4999238;28;20667;-74
2021/12/21 12:10:48;;;;;;;4.28;2.35;;;3.20;73.80;;;;;;5006022;28;20052;-82
2021/12/21 12:13:18;;;;;;;4.93;2.67;;;3.20;73.40;;;;;;5013686;28;20506;-75
2021/12/21 12:15:53;;;;;;;5.70;1.95;;;3.20;73.70;;;;;;5013838;28;20026;-78
2021/12/21 12:18:32;;;;;;;5.47;2.65;;;3.20;74.30;;;;;;5014041;28;20037;-76
2021/12/21 12:20:57;;;;;;;4.30;2.20;;;3.20;74.30;;;;;;5010451;28;20080;-74
2021/12/21 12:23:25;;;;;;;4.28;2.60;;;3.10;74.20;;;;;;5010848;28;20130;-73
2021/12/21 12:25:56;;;;;;;8.13;2.38;;;3.10;75.10;;;;;;5013550;28;20129;-73
2021/12/21 12:28:33;;;;;;;5.18;2.65;;;3.20;75.90;;;;;;4980329;28;20099;-73
2021/12/21 12:31:01;;;;;;;6.40;2.88;;;3.20;76.30;;;;;;5013897;28;20029;-74
2021/12/21 12:33:38;;;;;;;5.82;3.10;;;3.20;76.40;;;;;;4995982;28;20069;-77
2021/12/21 12:36:06;;;;;;;4.38;2.78;;;3.20;76.30;;;;;;5014365;28;20379;-79
2021/12/21 12:38:43;;;;;;;3.25;1.88;;;3.20;77.20;;;;;;4997575;28;20041;-79
2021/12/21 12:41:13;;;;;;;4.38;2.58;;;3.30;75.30;;;;;;4978448;28;20038;-79
2021/12/21 12:43:44;;;;;;;6.22;2.80;;;3.20;75.00;;;;;;5026560;28;20112;-80
2021/12/21 12:46:22;;;;;;;6.63;2.90;;;3.20;75.00;;;;;;5023146;28;20033;-77
2021/12/21 12:48:48;;;;;;;3.97;2.20;;;3.20;74.30;;;;;;4987307;28;20030;-77
2021/12/21 12:51:34;;;;;;;4.57;2.10;;;3.10;73.20;;;;;;5021341;28;20034;-81
2021/12/21 12:54:13;;;;;;;3.55;1.77;;;3.20;73.20;;;;;;5021991;28;20105;-82
2021/12/21 12:56:40;;;;;;;5.95;2.65;;;3.20;73.30;;;;;;4976431;28;20053;-80
2021/12/21 12:59:07;;;;;;;4.47;2.22;;;3.20;73.10;;;;;;4993738;28;20431;-80
2021/12/21 13:01:48;;;;;;;5.03;2.65;;;3.10;72.90;;;;;;4996459;28;20100;-76
2021/12/21 13:04:17;;;;;;;5.65;2.63;;;3.10;73.10;;;;;;4983840;28;20038;-74
2021/12/21 13:06:51;;;;;;;7.90;2.75;;;3.10;73.40;;;;;;4991967;28;20377;-77
2021/12/21 13:09:18;;;;;;;7.90;2.03;;;3.00;73.70;;;;;;4980291;28;20027;-79
2021/12/21 13:11:45;;;;;;;4.55;2.00;;;2.90;73.90;;;;;;4962858;28;20033;-77
2021/12/21 13:14:14;;;;;;;2.72;1.75;;;2.90;74.20;;;;;;4981846;28;20034;-73
2021/12/21 13:17:02;;;;;;;6.90;2.45;;;2.80;75.30;;;;;;4981550;28;20037;-72
2021/12/21 13:19:32;;;;;;;3.22;1.83;;;2.80;74.90;;;;;;4979588;28;20499;-76
2021/12/21 13:22:01;;;;;;;5.60;2.28;;;2.70;74.90;;;;;;4980560;28;20018;-74
2021/12/21 13:24:34;;;;;;;2.70;1.88;;;2.70;74.80;;;;;;4980675;28;20354;-78
2021/12/21 13:27:15;;;;;;;3.72;1.95;;;2.60;75.10;;;;;;4980940;28;20475;-77
2021/12/21 13:29:43;;;;;;;4.43;1.90;;;2.60;75.30;;;;;;4982391;28;20041;-80
2021/12/21 13:32:11;;;;;;;5.13;2.50;;;2.50;75.70;;;;;;4980790;28;20030;-80
2021/12/21 13:34:39;;;;;;;7.78;2.33;;;2.40;76.30;;;;;;4998417;28;20034;-80
2021/12/21 13:37:13;;;;;;;5.53;3.03;;;2.40;77.00;;;;;;4998728;28;20026;-80
2021/12/21 13:39:45;;;;;;;3.78;2.50;;;2.40;77.40;;;;;;4998761;28;20287;-80
2021/12/21 13:42:22;;;;;;;5.15;2.10;;;2.40;77.90;;;;;;4998499;28;20025;-78
2021/12/21 13:45:01;;;;;;;3.85;2.20;;;2.40;77.60;;;;;;4965010;28;20053;-79
2021/12/21 13:47:50;;;;;;;4.32;2.05;;;2.30;77.10;;;;;;4997975;28;20034;-78
2021/12/21 13:50:25;;;;;;;4.57;2.70;;;2.30;77.40;;;;;;4998059;28;20464;-80
2021/12/21 13:53:00;;;;;;;3.92;2.25;;;2.20;78.00;;;;;;4998541;28;20037;-80
2021/12/21 13:55:40;;;;;;;3.97;1.90;;;2.10;79.00;;;;;;4980911;28;20392;-78
2021/12/21 13:58:08;;;;;;;3.97;1.85;;;2.00;79.20;;;;;;4998407;28;20053;-79
2021/12/21 14:00:53;;;;;;;5.53;2.50;;;2.00;79.40;;;;;;4964081;28;20038;-79
2021/12/21 14:03:31;;;;;;;4.63;2.65;;;2.00;79.40;;;;;;4998342;28;20018;-80
2021/12/21 14:06:13;;;;;;;8.30;3.75;;;1.90;80.10;;;;;;5001417;28;20066;-80
2021/12/21 14:09:00;;;;;;;5.57;3.00;;;1.90;80.70;;;;;;5001658;28;20083;-80
2021/12/21 14:11:31;;;;;;;3.50;2.67;;;1.80;81.40;;;;;;4985141;28;20038;-81
2021/12/21 14:13:57;;;;;;;3.63;2.53;;;1.80;81.60;;;;;;4999812;28;20033;-77
2021/12/21 14:16:31;;;;;;;4.22;2.25;;;1.70;82.00;;;;;;5016149;28;20156;-78
2021/12/21 14:19:02;;;;;;;4.07;2.50;;;1.70;82.50;;;;;;4977627;28;20038;-78
2021/12/21 14:21:42;;;;;;;4.55;3.05;;;1.70;82.70;;;;;;4963187;28;20049;-78
2021/12/21 14:24:11;;;;;;;5.97;2.92;;;1.70;82.70;;;;;;4979008;28;20030;-78